Time;durP1;ratioP1;P1;durP2;ratioP2;P2;SDS_P1;SDS_P2;PMS_P1;PMS_P2;Temp;Humidity;BMP_temperature;BMP_pressure;BME280_temperature;BME280_humidity;BME280_pressure;Samples;Min_cycle;Max_cycle;Signal;HPM_P1;HPM_P2
2021/08/23 01:33:57;;;;;;;0.10;0.10;;;;;;;22.54;44.75;100128.06;6181356;23;20029;-61
2021/08/23 01:36:23;;;;;;;0.10;0.10;;;;;;;22.57;44.89;100130.41;6181228;23;20083;-61
2021/08/23 01:38:50;;;;;;;0.10;0.10;;;;;;;22.54;44.90;100136.06;6181127;23;20411;-61
2021/08/23 01:41:17;;;;;;;0.32;0.32;;;;;;;22.56;44.77;100139.38;6106863;23;20048;-61
2021/08/23 01:43:43;;;;;;;0.10;0.10;;;;;;;22.55;44.77;100143.88;6181141;23;20025;-61
2021/08/23 01:46:09;;;;;;;0.20;0.20;;;;;;;22.54;44.97;100144.88;6181538;23;20026;-61
2021/08/23 01:48:35;;;;;;;0.20;0.20;;;;;;;22.54;45.00;100152.88;6181709;23;20165;-60
2021/08/23 01:51:01;;;;;;;0.55;0.55;;;;;;;22.53;44.97;100150.34;6182061;23;20037;-61
2021/08/23 01:53:33;;;;;;;0.20;0.20;;;;;;;22.50;44.99;100148.81;6183001;23;20449;-61
2021/08/23 01:56:01;;;;;;;0.10;0.10;;;;;;;22.51;45.05;100152.31;6182716;23;20480;-61
2021/08/23 01:58:27;;;;;;;0.10;0.10;;;;;;;22.50;44.91;100154.16;6156903;23;20020;-61
2021/08/23 02:00:54;;;;;;;0.28;0.28;;;;;;;22.49;44.91;100152.47;6183196;23;20029;-60
2021/08/23 02:03:19;;;;;;;0.10;0.10;;;;;;;22.50;45.10;100150.66;6157033;23;20072;-60
2021/08/23 02:05:45;;;;;;;0.10;0.10;;;;;;;22.51;44.95;100155.81;6178005;23;20488;-61
2021/08/23 02:08:11;;;;;;;0.10;0.10;;;;;;;22.50;45.03;100148.00;6183388;23;20020;-61
2021/08/23 02:10:38;;;;;;;0.10;0.10;;;;;;;22.52;45.03;100152.16;6182719;23;20472;-61
2021/08/23 02:13:04;;;;;;;0.10;0.10;;;;;;;22.48;45.06;100145.47;6183475;23;20350;-63
2021/08/23 02:15:30;;;;;;;0.30;0.30;;;;;;;22.50;44.99;100148.00;6183469;23;20428;-65
2021/08/23 02:17:56;;;;;;;0.15;0.15;;;;;;;22.52;44.97;100146.84;6132666;23;20021;-63
2021/08/23 02:20:42;;;;;;;0.10;0.10;;;;;;;22.40;44.92;100128.59;6161612;23;20432;-62
2021/08/23 02:23:28;;;;;;;0.30;0.30;;;;;;;22.56;44.75;100155.34;6183115;23;20290;-62
2021/08/23 02:26:14;;;;;;;0.10;0.10;;;;;;;22.57;44.89;100160.53;6181666;23;20017;-61
2021/08/23 02:28:59;;;;;;;0.10;0.10;;;;;;;22.56;44.98;100158.84;6182950;23;20028;-61
2021/08/23 02:31:45;;;;;;;0.10;0.10;;;;;;;22.60;44.86;100164.72;6185544;23;20075;-61
2021/08/23 02:34:31;;;;;;;0.22;0.22;;;;;;;22.55;44.70;100146.53;6211802;23;20031;-62
2021/08/23 02:37:17;;;;;;;0.20;0.20;;;;;;;22.61;44.76;100159.22;6213246;23;20096;-62
2021/08/23 02:40:03;;;;;;;0.10;0.10;;;;;;;22.67;44.51;100161.31;6213055;23;20028;-62
2021/08/23 02:42:52;;;;;;;0.10;0.10;;;;;;;22.66;44.46;100159.66;6212831;23;20114;-62
2021/08/23 02:45:39;;;;;;;0.10;0.10;;;;;;;22.72;44.57;100168.84;6214196;23;20016;-63
2021/08/23 02:48:24;;;;;;;0.10;0.10;;;;;;;22.77;44.39;100169.22;6213081;23;20027;-61
2021/08/23 02:51:11;;;;;;;0.10;0.10;;;;;;;22.73;44.34;100165.19;6213733;23;20031;-63
2021/08/23 02:53:57;;;;;;;0.50;0.50;;;;;;;22.86;44.19;100170.13;6214037;23;20071;-61
2021/08/23 02:57:10;;;;;;;0.10;0.10;;;;;;;22.92;44.09;100170.34;6214317;23;20067;-63
2021/08/23 02:59:56;;;;;;;0.10;0.10;;;;;;;22.98;43.91;100168.88;6191946;23;20027;-59
2021/08/23 03:02:53;;;;;;;0.57;0.57;;;;;;;23.05;43.69;100168.09;6213508;23;20095;-63
2021/08/23 03:05:38;;;;;;;0.20;0.20;;;;;;;23.45;42.92;100167.53;6211913;23;20025;-62
2021/08/23 03:08:24;;;;;;;0.40;0.40;;;;;;;24.31;41.07;100162.88;6212723;23;20108;-62
2021/08/23 03:11:12;;;;;;;0.20;0.20;;;;;;;25.09;39.37;100169.41;6212866;23;20028;-62
2021/08/23 03:13:58;;;;;;;0.20;0.20;;;;;;;25.66;38.27;100172.78;6211021;23;20021;-63
2021/08/23 03:16:44;;;;;;;0.20;0.20;;;;;;;26.05;37.29;100158.53;6211398;23;20170;-63
2021/08/23 03:19:30;;;;;;;0.20;0.20;;;;;;;26.40;36.26;100158.88;6212704;23;20060;-62
2021/08/23 03:22:15;;;;;;;0.30;0.30;;;;;;;26.78;35.98;100172.28;6212803;23;20020;-62
2021/08/23 03:25:01;;;;;;;0.20;0.20;;;;;;;27.10;35.05;100180.06;6212533;23;20132;-63
2021/08/23 03:27:47;;;;;;;0.22;0.22;;;;;;;27.36;34.54;100183.16;6212324;23;20066;-63
2021/08/23 03:30:33;;;;;;;0.20;0.20;;;;;;;27.60;34.43;100179.41;6190248;23;20444;-63
2021/08/23 03:33:18;;;;;;;0.20;0.20;;;;;;;27.76;33.74;100170.31;6212079;23;20453;-63
2021/08/23 03:36:04;;;;;;;0.20;0.20;;;;;;;27.98;33.61;100180.09;6211089;23;20059;-62
2021/08/23 03:38:50;;;;;;;0.20;0.20;;;;;;;28.17;33.03;100166.13;6211782;23;20468;-62
2021/08/23 03:41:39;;;;;;;0.50;0.50;;;;;;;28.47;32.75;100179.44;6212676;23;20020;-61
2021/08/23 03:44:25;;;;;;;0.20;0.20;;;;;;;28.68;32.03;100169.53;6212491;23;20082;-62
2021/08/23 03:47:11;;;;;;;0.40;0.40;;;;;;;28.94;31.88;100180.53;6212892;23;20096;-63
2021/08/23 03:49:57;;;;;;;0.20;0.20;;;;;;;29.14;31.37;100169.09;6212115;23;20103;-61
2021/08/23 03:52:43;;;;;;;0.30;0.30;;;;;;;29.37;30.97;100175.06;6212079;23;20024;-62
2021/08/23 03:55:29;;;;;;;0.10;0.10;;;;;;;29.49;30.56;100168.09;6212447;23;20021;-61
2021/08/23 03:58:15;;;;;;;0.20;0.20;;;;;;;29.74;30.13;100177.34;6212350;23;20087;-61
2021/08/23 04:01:00;;;;;;;0.20;0.20;;;;;;;29.95;29.83;100179.94;6213479;23;20024;-64
2021/08/23 04:03:46;;;;;;;0.20;0.20;;;;;;;30.05;29.45;100165.28;6212067;23;20016;-62
2021/08/23 04:06:32;;;;;;;0.20;0.20;;;;;;;30.37;29.07;100188.78;6212484;23;20028;-63
2021/08/23 04:09:18;;;;;;;0.32;0.32;;;;;;;30.56;28.94;100181.81;6212199;23;20025;-62
2021/08/23 04:12:04;;;;;;;0.20;0.20;;;;;;;30.79;28.25;100193.84;6212084;23;20088;-62
2021/08/23 04:14:50;;;;;;;0.20;0.20;;;;;;;30.98;28.14;100187.69;6211330;23;20020;-62
2021/08/23 04:17:35;;;;;;;0.20;0.20;;;;;;;31.18;27.67;100195.78;6211912;23;20432;-62
2021/08/23 04:20:22;;;;;;;0.20;0.20;;;;;;;31.32;27.44;100188.47;6212099;23;20028;-62
2021/08/23 04:23:07;;;;;;;0.25;0.25;;;;;;;31.53;27.26;100195.53;6210638;23;20028;-63
2021/08/23 04:25:53;;;;;;;0.20;0.20;;;;;;;31.65;26.88;100194.66;6211918;23;20083;-63
2021/08/23 04:28:39;;;;;;;0.17;0.17;;;;;;;31.79;26.89;100190.88;6189651;23;20020;-63
2021/08/23 04:31:28;;;;;;;0.20;0.20;;;;;;;31.88;26.82;100197.69;6212001;23;20024;-62
2021/08/23 04:34:14;;;;;;;0.30;0.30;;;;;;;32.00;26.56;100190.56;6212061;23;20020;-61
2021/08/23 04:37:03;;;;;;;0.20;0.20;;;;;;;32.17;26.28;100198.22;6211687;23;20027;-62
2021/08/23 04:39:49;;;;;;;;;;;;;;;32.30;25.86;100192.72;6212201;23;20094;-62
2021/08/23 04:42:35;;;;;;;0.20;0.20;;;;;;;32.41;25.77;100189.34;6211899;23;20256;-63
2021/08/23 04:45:21;;;;;;;0.55;0.55;;;;;;;32.54;25.54;100194.69;6212169;23;20025;-63
2021/08/23 04:48:07;;;;;;;0.30;0.30;;;;;;;32.61;25.72;100194.66;6211669;23;20020;-64
2021/08/23 04:50:52;;;;;;;0.40;0.30;;;;;;;32.70;25.43;100199.59;6211598;23;20476;-62
2021/08/23 04:53:38;;;;;;;0.20;0.20;;;;;;;32.77;25.08;100196.81;6211894;23;20020;-63
2021/08/23 04:56:24;;;;;;;0.20;0.20;;;;;;;32.82;25.31;100192.41;6212504;23;20020;-63
2021/08/23 04:59:21;;;;;;;0.28;0.28;;;;;;;32.94;25.25;100206.06;6213049;23;20055;-62
2021/08/23 05:02:08;;;;;;;0.50;0.50;;;;;;;33.01;24.75;100193.31;6212620;23;20031;-63
2021/08/23 05:05:08;;;;;;;0.20;0.20;;;;;;;33.10;24.89;100194.72;6172818;23;20555;-63
2021/08/23 05:07:55;;;;;;;0.10;0.10;;;;;;;33.15;24.89;100199.47;6210833;23;20079;-63
2021/08/23 05:10:46;;;;;;;0.40;0.40;;;;;;;33.18;24.53;100196.31;6212686;23;20460;-62
2021/08/23 05:13:32;;;;;;;0.30;0.30;;;;;;;33.25;24.73;100203.31;6210196;23;20032;-64
2021/08/23 05:16:20;;;;;;;0.22;0.22;;;;;;;33.27;24.17;100197.69;6190934;23;20035;-62
2021/08/23 05:19:12;;;;;;;0.20;0.20;;;;;;;33.33;24.49;100202.22;6211967;23;20107;-62
2021/08/23 05:21:58;;;;;;;0.13;0.13;;;;;;;33.36;24.39;100199.88;6212580;23;20020;-63
2021/08/23 05:24:44;;;;;;;0.32;0.32;;;;;;;33.39;24.30;100201.31;6213133;23;20043;-63
2021/08/23 05:27:29;;;;;;;0.20;0.20;;;;;;;33.42;24.05;100198.16;6212452;23;20020;-63
2021/08/23 05:30:15;;;;;;;0.52;0.52;;;;;;;33.43;24.21;100200.66;6212201;23;20068;-65
2021/08/23 05:33:01;;;;;;;0.15;0.15;;;;;;;33.44;24.02;100194.16;6209951;23;20021;-65
2021/08/23 05:35:47;;;;;;;0.55;0.55;;;;;;;33.47;24.02;100201.88;6212099;23;20055;-63
2021/08/23 05:38:33;;;;;;;0.20;0.20;;;;;;;33.47;23.97;100199.16;6211154;23;20024;-63
2021/08/23 05:41:19;;;;;;;0.20;0.20;;;;;;;33.56;23.62;100199.69;6212924;23;20025;-62
2021/08/23 05:43:49;;;;;;;0.10;0.10;;;;;;;33.59;23.67;100204.63;6210255;23;20095;-63
2021/08/23 05:46:49;;;;;;;0.17;0.17;;;;;;;33.65;23.41;100192.09;6210456;23;20017;-65
2021/08/23 05:49:17;;;;;;;0.10;0.10;;;;;;;33.71;23.61;100202.03;6191405;23;20372;-66
2021/08/23 05:51:43;;;;;;;0.17;0.17;;;;;;;33.69;23.16;100201.44;6210665;23;20036;-63
2021/08/23 05:54:09;;;;;;;0.17;0.17;;;;;;;33.73;23.05;100203.47;6211092;23;20342;-64
2021/08/23 05:56:40;;;;;;;0.10;0.10;;;;;;;33.79;23.04;100197.16;6211162;23;20393;-65
2021/08/23 05:59:10;;;;;;;0.10;0.10;;;;;;;33.83;22.79;100201.06;6209828;23;20433;-62
2021/08/23 06:01:36;;;;;;;0.20;0.20;;;;;;;33.93;22.80;100198.63;6211460;23;20081;-61
2021/08/23 06:04:01;;;;;;;0.20;0.20;;;;;;;34.02;22.55;100201.88;6211166;23;20400;-63
2021/08/23 06:06:28;;;;;;;0.10;0.10;;;;;;;34.19;22.45;100200.22;6211137;23;20369;-62
2021/08/23 06:08:55;;;;;;;0.10;0.10;;;;;;;34.76;21.50;100198.78;6209452;23;20016;-63
2021/08/23 06:11:20;;;;;;;0.10;0.10;;;;;;;36.69;19.42;100209.25;6211414;23;20027;-62
2021/08/23 06:13:48;;;;;;;0.20;0.20;;;;;;;40.73;15.35;100193.97;6210886;23;20016;-63
2021/08/23 06:16:14;;;;;;;0.20;0.20;;;;;;;43.88;12.59;100196.28;6210850;23;20024;-63
2021/08/23 06:18:39;;;;;;;0.30;0.30;;;;;;;45.73;10.97;100183.53;6210933;23;20016;-64
2021/08/23 06:21:09;;;;;;;0.20;0.20;;;;;;;46.58;10.01;100194.63;6209244;23;20032;-63
2021/08/23 06:23:35;;;;;;;0.30;0.30;;;;;;;47.13;9.95;100197.06;6183910;23;20027;-64
2021/08/23 06:26:06;;;;;;;0.28;0.28;;;;;;;47.13;9.78;100195.13;6183374;23;20028;-65
2021/08/23 06:28:38;;;;;;;0.20;0.20;;;;;;;47.20;9.52;100178.09;6162428;23;20013;-67
2021/08/23 06:31:04;;;;;;;0.30;0.30;;;;;;;47.41;9.59;100201.31;6209347;23;20103;-63
2021/08/23 06:33:31;;;;;;;0.32;0.32;;;;;;;47.57;9.29;100191.47;6210946;23;20024;-63
2021/08/23 06:35:57;;;;;;;0.20;0.20;;;;;;;47.59;9.21;100197.47;6184464;23;20368;-62
2021/08/23 06:38:23;;;;;;;0.20;0.20;;;;;;;46.69;9.75;100203.47;6210241;23;20059;-63
2021/08/23 06:40:49;;;;;;;0.20;0.20;;;;;;;43.61;11.78;100201.53;6213089;23;20440;-61
2021/08/23 06:43:15;;;;;;;0.10;0.10;;;;;;;40.04;14.99;100203.41;6211028;23;20021;-62
2021/08/23 06:45:41;;;;;;;0.10;0.10;;;;;;;37.79;17.21;100199.28;6212704;23;20331;-62
2021/08/23 06:48:07;;;;;;;0.10;0.10;;;;;;;36.22;18.76;100200.50;6210764;23;20121;-62
2021/08/23 06:50:33;;;;;;;0.10;0.10;;;;;;;35.57;19.68;100203.41;6212569;23;20023;-63
2021/08/23 06:52:59;;;;;;;0.10;0.10;;;;;;;35.04;19.94;100204.38;6212640;23;20017;-65
2021/08/23 06:55:25;;;;;;;0.10;0.10;;;;;;;34.68;20.49;100195.56;6212686;23;20341;-62
2021/08/23 06:57:51;;;;;;;0.10;0.10;;;;;;;34.41;20.90;100192.41;6211275;23;20020;-63
2021/08/23 07:00:17;;;;;;;0.08;0.08;;;;;;;34.04;21.47;100203.28;6212283;23;20021;-63
2021/08/23 07:02:43;;;;;;;0.10;0.10;;;;;;;33.99;21.36;100197.75;6212607;23;20420;-62
2021/08/23 07:05:09;;;;;;;0.10;0.10;;;;;;;33.92;21.20;100194.28;6210778;23;20074;-63
2021/08/23 07:07:35;;;;;;;0.10;0.10;;;;;;;33.90;21.18;100196.38;6212534;23;20021;-62
2021/08/23 07:10:02;;;;;;;0.10;0.10;;;;;;;33.83;21.80;100195.66;6210584;23;20059;-63
2021/08/23 07:12:27;;;;;;;0.10;0.10;;;;;;;33.73;21.84;100184.50;6212596;23;20027;-62
2021/08/23 07:14:53;;;;;;;0.10;0.10;;;;;;;33.65;21.81;100190.22;6212658;23;20016;-63
2021/08/23 07:17:19;;;;;;;0.10;0.10;;;;;;;33.40;21.76;100197.56;6210884;23;20397;-62
2021/08/23 07:19:45;;;;;;;0.10;0.10;;;;;;;32.97;22.55;100189.38;6212262;23;20364;-62
2021/08/23 07:22:18;;;;;;;0.10;0.10;;;;;;;32.75;22.86;100190.81;6212195;23;20022;-62
2021/08/23 07:24:46;;;;;;;0.10;0.10;;;;;;;32.84;22.86;100194.91;6210571;23;20016;-62
2021/08/23 07:27:12;;;;;;;0.10;0.10;;;;;;;32.91;22.66;100193.81;6212315;23;20279;-62
2021/08/23 07:29:38;;;;;;;0.05;0.05;;;;;;;32.50;23.07;100201.56;6212285;23;20280;-62
2021/08/23 07:32:04;;;;;;;0.10;0.10;;;;;;;32.33;23.42;100178.81;6210121;23;20428;-62
2021/08/23 07:34:29;;;;;;;0.10;0.10;;;;;;;32.49;23.18;100186.41;6212148;23;20020;-62
2021/08/23 07:36:55;;;;;;;0.08;0.08;;;;;;;32.09;23.60;100193.06;6212269;23;20020;-62
2021/08/23 07:39:22;;;;;;;0.15;0.15;;;;;;;31.69;23.80;100189.66;6212196;23;20020;-62
2021/08/23 07:41:50;;;;;;;0.10;0.10;;;;;;;31.71;24.13;100187.59;6212198;23;20160;-62
2021/08/23 07:44:16;;;;;;;0.10;0.10;;;;;;;31.75;23.72;100194.19;6211961;23;20569;-63
2021/08/23 07:46:42;;;;;;;0.10;0.10;;;;;;;31.88;23.58;100178.78;6210310;23;20342;-62
2021/08/23 07:49:08;;;;;;;0.10;0.10;;;;;;;31.61;24.03;100179.91;6211369;23;20022;-62
2021/08/23 07:51:34;;;;;;;0.00;0.00;;;;;;;31.49;23.78;100192.38;6212181;23;20051;-63
2021/08/23 07:54:00;;;;;;;0.10;0.10;;;;;;;31.56;23.93;100189.69;6211804;23;20052;-61
2021/08/23 07:56:29;;;;;;;0.10;0.10;;;;;;;31.48;24.14;100178.03;6212215;23;20020;-63
2021/08/23 07:58:56;;;;;;;0.10;0.10;;;;;;;31.39;24.03;100178.47;6211720;23;20016;-62
2021/08/23 08:01:23;;;;;;;0.30;0.30;;;;;;;31.36;24.07;100173.50;6212100;23;20614;-61
2021/08/23 08:03:49;;;;;;;0.10;0.10;;;;;;;31.32;23.93;100177.66;6210534;23;20164;-62
2021/08/23 08:06:16;;;;;;;0.00;0.00;;;;;;;31.28;23.99;100171.06;6210191;23;20028;-62
2021/08/23 08:08:42;;;;;;;0.10;0.10;;;;;;;31.12;24.32;100171.50;6210079;23;20021;-63
2021/08/23 08:11:08;;;;;;;0.00;0.00;;;;;;;30.89;24.53;100174.59;6211432;23;20021;-62
2021/08/23 08:13:34;;;;;;;3.47;0.68;;;;;;;30.86;24.72;100162.31;6210063;23;20341;-62
2021/08/23 08:16:01;;;;;;;0.00;0.00;;;;;;;30.82;24.46;100182.69;6211674;23;20534;-63
2021/08/23 08:18:27;;;;;;;0.03;0.03;;;;;;;30.72;24.97;100176.88;6211731;23;20021;-63
2021/08/23 08:20:53;;;;;;;0.00;0.00;;;;;;;30.60;24.92;100174.94;6211764;23;20360;-62
2021/08/23 08:23:19;;;;;;;0.10;0.10;;;;;;;30.33;25.28;100171.38;6211953;23;20048;-63
2021/08/23 08:25:45;;;;;;;0.00;0.00;;;;;;;30.18;25.37;100170.69;6211388;23;20389;-63
2021/08/23 08:28:11;;;;;;;0.00;0.00;;;;;;;29.95;25.57;100166.50;6211252;23;20025;-63
2021/08/23 08:30:38;;;;;;;0.10;0.10;;;;;;;29.95;25.75;100168.34;6209903;23;20555;-63
2021/08/23 08:33:04;;;;;;;0.10;0.10;;;;;;;30.11;25.32;100167.16;6211260;23;20453;-63
2021/08/23 08:35:31;;;;;;;0.00;0.00;;;;;;;30.22;25.10;100178.19;6210267;23;20388;-63
2021/08/23 08:37:57;;;;;;;0.10;0.10;;;;;;;30.20;25.25;100174.03;6211733;23;20043;-62
2021/08/23 08:40:24;;;;;;;0.00;0.00;;;;;;;30.10;25.35;100181.69;6211402;23;20506;-63
2021/08/23 08:42:51;;;;;;;0.00;0.00;;;;;;;29.99;25.47;100175.00;6211662;23;20020;-63
2021/08/23 08:45:17;;;;;;;0.00;0.00;;;;;;;29.82;25.70;100174.47;6211203;23;20365;-63
2021/08/23 08:47:44;;;;;;;0.00;0.00;;;;;;;29.64;25.86;100174.19;6211329;23;20529;-63
2021/08/23 08:50:30;;;;;;;0.10;0.10;;;;;;;29.55;26.23;100183.44;6211856;23;20031;-63
2021/08/23 08:53:16;;;;;;;0.10;0.10;;;;;;;29.51;26.10;100182.22;6209886;23;20492;-63
2021/08/23 08:56:04;;;;;;;0.03;0.03;;;;;;;29.59;26.00;100168.56;6189409;23;20103;-63
2021/08/23 08:58:50;;;;;;;0.13;0.13;;;;;;;29.65;25.98;100172.31;6211516;23;20021;-63
2021/08/23 09:01:36;;;;;;;0.00;0.00;;;;;;;29.75;25.58;100179.00;6211530;23;20021;-62
2021/08/23 09:04:32;;;;;;;0.10;0.10;;;;;;;29.75;25.73;100170.91;6211394;23;20021;-63
2021/08/23 09:07:18;;;;;;;0.20;0.20;;;;;;;29.70;25.60;100176.09;6210215;23;20024;-65
2021/08/23 09:10:22;;;;;;;0.20;0.20;;;;;;;29.74;25.50;100185.44;6211523;23;20028;-64
2021/08/23 09:13:10;;;;;;;0.00;0.00;;;;;;;29.77;25.36;100192.28;6211468;23;20074;-65
2021/08/23 09:15:56;;;;;;;0.00;0.00;;;;;;;29.78;25.57;100183.97;6211671;23;20021;-64
2021/08/23 09:18:42;;;;;;;0.43;0.40;;;;;;;29.76;25.79;100175.28;6211485;23;20498;-62
2021/08/23 09:21:32;;;;;;;0.10;0.10;;;;;;;29.73;25.75;100180.25;6189168;23;20024;-62
2021/08/23 09:24:19;;;;;;;0.10;0.10;;;;;;;29.67;25.78;100172.97;6211085;23;20074;-62
2021/08/23 09:27:06;;;;;;;0.10;0.10;;;;;;;29.61;25.54;100185.38;6211172;23;20110;-62
2021/08/23 09:29:59;;;;;;;0.10;0.10;;;;;;;29.60;25.74;100185.56;6209542;23;20024;-62
2021/08/23 09:32:50;;;;;;;0.00;0.00;;;;;;;29.51;25.95;100182.22;6211173;23;20052;-62
2021/08/23 09:35:37;;;;;;;0.10;0.10;;;;;;;29.48;25.72;100190.69;6212058;23;20060;-63
2021/08/23 09:38:23;;;;;;;0.10;0.10;;;;;;;29.46;26.03;100192.72;6211448;23;20416;-63
2021/08/23 09:41:09;;;;;;;0.10;0.10;;;;;;;29.45;26.02;100193.72;6211375;23;20025;-63
2021/08/23 09:44:05;;;;;;;0.10;0.10;;;;;;;29.43;26.17;100185.03;6189356;23;20021;-63
2021/08/23 09:46:56;;;;;;;0.10;0.10;;;;;;;29.40;26.22;100185.44;6211484;23;20508;-63
2021/08/23 09:49:46;;;;;;;0.00;0.00;;;;;;;29.36;26.50;100190.38;6211329;23;20355;-63
2021/08/23 09:52:33;;;;;;;;;;;;;;;29.32;25.91;100182.88;6211901;23;20104;-60
2021/08/23 09:55:19;;;;;;;0.10;0.10;;;;;;;29.25;25.59;100174.81;6211027;23;20367;-61
2021/08/23 09:58:06;;;;;;;0.10;0.10;;;;;;;29.26;25.87;100189.91;6211008;23;20467;-61
2021/08/23 10:00:52;;;;;;;0.00;0.00;;;;;;;29.25;25.72;100177.50;6209970;23;20583;-61
2021/08/23 10:03:38;;;;;;;0.00;0.00;;;;;;;29.32;25.90;100194.50;6210115;23;20016;-61
2021/08/23 10:06:23;;;;;;;0.10;0.10;;;;;;;29.27;25.89;100196.13;6211029;23;20082;-61
2021/08/23 10:09:09;;;;;;;0.20;0.20;;;;;;;29.17;26.41;100190.22;6209752;23;20052;-61
2021/08/23 10:11:58;;;;;;;0.28;0.28;;;;;;;29.23;26.21;100192.13;6210859;23;20547;-61
2021/08/23 10:14:44;;;;;;;0.10;0.10;;;;;;;29.33;25.98;100195.31;6211506;23;20020;-63
2021/08/23 10:17:35;;;;;;;0.10;0.10;;;;;;;29.24;26.08;100191.09;6213161;23;20423;-62
2021/08/23 10:20:21;;;;;;;0.00;0.00;;;;;;;29.32;26.30;100196.34;6211898;23;20021;-60
2021/08/23 10:23:07;;;;;;;0.10;0.10;;;;;;;29.41;26.27;100201.41;6213130;23;20016;-64
2021/08/23 10:25:56;;;;;;;0.10;0.10;;;;;;;29.41;26.14;100192.50;6212242;23;20108;-62
2021/08/23 10:28:42;;;;;;;0.10;0.10;;;;;;;29.38;26.24;100193.69;6212604;23;20416;-61
2021/08/23 10:31:33;;;;;;;0.00;0.00;;;;;;;29.26;26.28;100187.22;6211607;23;20465;-63
2021/08/23 10:34:21;;;;;;;0.25;0.25;;;;;;;29.26;26.42;100189.06;6191627;23;20123;-61
2021/08/23 10:37:29;;;;;;;0.10;0.10;;;;;;;29.32;26.12;100183.72;6169861;23;20082;-67
2021/08/23 10:40:15;;;;;;;0.00;0.00;;;;;;;29.24;26.50;100181.16;6191256;23;20175;-62
2021/08/23 10:43:18;;;;;;;0.00;0.00;;;;;;;29.09;26.76;100187.69;6191209;23;20082;-64
2021/08/23 10:46:26;;;;;;;0.00;0.00;;;;;;;29.11;26.59;100182.94;6213581;23;20025;-63
2021/08/23 10:49:12;;;;;;;0.10;0.10;;;;;;;29.04;26.55;100187.41;6195158;23;20024;-64
2021/08/23 10:51:58;;;;;;;0.00;0.00;;;;;;;28.92;27.01;100187.13;6213451;23;20104;-61
2021/08/23 10:54:51;;;;;;;0.00;0.00;;;;;;;29.00;26.98;100189.66;6191531;23;20024;-66
2021/08/23 10:57:37;;;;;;;0.17;0.17;;;;;;;28.95;26.82;100186.75;6170866;23;20021;-63
2021/08/23 11:00:23;;;;;;;0.00;0.00;;;;;;;28.93;26.71;100178.84;6213053;23;20469;-62
2021/08/23 11:03:09;;;;;;;0.00;0.00;;;;;;;28.94;26.88;100177.00;6190914;23;20056;-61
2021/08/23 11:06:06;;;;;;;0.10;0.10;;;;;;;28.90;26.78;100160.44;6190599;23;20480;-63
2021/08/23 11:08:52;;;;;;;0.00;0.00;;;;;;;28.93;26.92;100180.72;6190712;23;20341;-64
2021/08/23 11:11:39;;;;;;;0.00;0.00;;;;;;;28.93;26.82;100170.78;6190780;23;20289;-62
2021/08/23 11:14:25;;;;;;;0.00;0.00;;;;;;;29.06;26.72;100182.69;6212485;23;20156;-63
2021/08/23 11:17:25;;;;;;;0.63;0.63;;;;;;;29.08;26.75;100172.56;6212650;23;20364;-65
2021/08/23 11:20:11;;;;;;;0.00;0.00;;;;;;;29.16;26.55;100161.63;6190427;23;20020;-65
2021/08/23 11:22:57;;;;;;;0.10;0.10;;;;;;;29.19;26.35;100169.34;6170190;23;20032;-63
2021/08/23 11:25:48;;;;;;;0.10;0.10;;;;;;;29.14;25.93;100139.50;6212630;23;20052;-62
2021/08/23 11:28:35;;;;;;;0.10;0.10;;;;;;;29.03;25.91;100154.31;6213030;23;20023;-65
2021/08/23 11:31:23;;;;;;;0.10;0.10;;;;;;;29.06;26.16;100169.25;6212487;23;20175;-61
2021/08/23 11:34:09;;;;;;;0.10;0.10;;;;;;;29.03;26.24;100164.22;6212191;23;20025;-64
2021/08/23 11:37:03;;;;;;;0.00;0.00;;;;;;;29.01;26.12;100150.16;6213002;23;20143;-63
2021/08/23 11:39:59;;;;;;;0.00;0.00;;;;;;;29.12;26.24;100163.09;6212289;23;20024;-62
2021/08/23 11:42:45;;;;;;;0.10;0.10;;;;;;;29.06;26.46;100169.25;6212056;23;20476;-62
2021/08/23 11:45:36;;;;;;;0.08;0.08;;;;;;;28.93;26.53;100161.88;6212201;23;20051;-64
2021/08/23 11:48:22;;;;;;;0.00;0.00;;;;;;;28.79;26.70;100163.66;6190248;23;20075;-64
2021/08/23 11:51:08;;;;;;;0.00;0.00;;;;;;;28.75;26.76;100158.84;6212393;23;20025;-62
2021/08/23 11:53:53;;;;;;;0.10;0.10;;;;;;;28.66;26.88;100154.66;6212560;23;20028;-63
2021/08/23 11:56:39;;;;;;;0.10;0.10;;;;;;;28.62;27.17;100167.59;6190503;23;20028;-63
2021/08/23 11:59:25;;;;;;;0.00;0.00;;;;;;;28.59;27.21;100173.38;6212263;23;20025;-63
2021/08/23 12:02:22;;;;;;;;;;;;;;;;;;;;;
2021/08/23 12:05:17;;;;;;;0.00;0.00;;;;;;;28.67;27.20;100161.66;6212218;23;20024;-62
2021/08/23 12:08:03;;;;;;;0.10;0.10;;;;;;;28.69;27.30;100144.34;6212533;23;20114;-63
2021/08/23 12:10:53;;;;;;;0.10;0.10;;;;;;;28.89;27.11;100161.44;6189971;23;20035;-64
2021/08/23 12:13:49;;;;;;;0.10;0.10;;;;;;;28.98;26.98;100158.63;6212241;23;20020;-65
2021/08/23 12:16:36;;;;;;;0.10;0.10;;;;;;;29.02;26.61;100155.38;6212322;23;20407;-63
2021/08/23 12:19:21;;;;;;;0.10;0.10;;;;;;;29.08;26.61;100153.75;6212083;23;20024;-63
2021/08/23 12:22:07;;;;;;;0.00;0.00;;;;;;;29.07;26.35;100141.31;6212424;23;20162;-63
2021/08/23 12:24:57;;;;;;;0.00;0.00;;;;;;;29.00;26.74;100153.88;6169658;23;20357;-60
2021/08/23 12:27:50;;;;;;;0.10;0.10;;;;;;;28.91;26.48;100148.66;6212173;23;20021;-61
2021/08/23 12:30:36;;;;;;;0.10;0.10;;;;;;;28.77;26.81;100154.94;6211702;23;20035;-62
2021/08/23 12:33:24;;;;;;;0.00;0.00;;;;;;;28.64;27.10;100156.66;6211629;23;20016;-62
2021/08/23 12:36:10;;;;;;;0.00;0.00;;;;;;;28.50;26.77;100150.31;6211935;23;20016;-62
2021/08/23 12:38:56;;;;;;;0.10;0.10;;;;;;;28.35;27.34;100146.88;6189921;23;20024;-63
2021/08/23 12:41:43;;;;;;;0.10;0.10;;;;;;;28.30;27.59;100154.69;6211625;23;20028;-61
2021/08/23 12:44:28;;;;;;;0.10;0.10;;;;;;;28.20;27.66;100154.16;6211543;23;20021;-62
2021/08/23 12:47:14;;;;;;;0.00;0.00;;;;;;;28.16;27.67;100150.19;6169603;23;20024;-63
2021/08/23 12:50:00;;;;;;;0.00;0.00;;;;;;;28.24;27.86;100147.38;6211664;23;20499;-61
2021/08/23 12:52:50;;;;;;;0.00;0.00;;;;;;;28.33;27.63;100138.19;6212545;23;20024;-64
2021/08/23 12:55:39;;;;;;;0.10;0.10;;;;;;;28.39;27.20;100137.41;6191094;23;20031;-63
2021/08/23 12:58:25;;;;;;;0.00;0.00;;;;;;;28.45;27.19;100136.63;6211748;23;20025;-64
2021/08/23 13:01:12;;;;;;;0.00;0.00;;;;;;;28.51;27.03;100135.03;6211933;23;20016;-62
2021/08/23 13:03:58;;;;;;;0.10;0.10;;;;;;;28.59;26.96;100137.59;6212399;23;20047;-62
2021/08/23 13:06:44;;;;;;;0.10;0.10;;;;;;;28.58;26.49;100147.50;6211474;23;20024;-61
2021/08/23 13:09:30;;;;;;;0.00;0.00;;;;;;;28.61;26.64;100146.28;6211399;23;20051;-64
2021/08/23 13:12:16;;;;;;;0.00;0.00;;;;;;;28.50;26.76;100150.31;6211902;23;20029;-64
2021/08/23 13:15:05;;;;;;;0.00;0.00;;;;;;;28.51;27.02;100151.97;6211744;23;20023;-63
2021/08/23 13:17:51;;;;;;;0.00;0.00;;;;;;;28.47;27.28;100158.75;6190164;23;20059;-61
2021/08/23 13:20:38;;;;;;;0.00;0.00;;;;;;;28.42;27.12;100153.16;6212013;23;20095;-65
2021/08/23 13:23:23;;;;;;;0.00;0.00;;;;;;;28.35;27.36;100146.88;6189353;23;20132;-62
2021/08/23 13:26:09;;;;;;;0.00;0.00;;;;;;;28.28;27.49;100156.72;6211753;23;20044;-62
2021/08/23 13:28:56;;;;;;;0.10;0.10;;;;;;;28.19;27.82;100152.50;6211816;23;20380;-64
2021/08/23 13:31:42;;;;;;;0.13;0.13;;;;;;;28.14;27.74;100149.56;6211556;23;20047;-62
2021/08/23 13:34:28;;;;;;;0.10;0.10;;;;;;;28.14;27.94;100144.19;6157622;23;20025;-62
2021/08/23 13:37:14;;;;;;;0.10;0.10;;;;;;;28.08;28.03;100155.66;6181723;23;20025;-60
2021/08/23 13:40:05;;;;;;;1.17;0.38;;;;;;;28.03;27.86;100144.63;6181551;23;20346;-63
2021/08/23 13:42:51;;;;;;;0.20;0.20;;;;;;;28.03;27.79;100158.91;6181507;23;20021;-63
2021/08/23 13:45:37;;;;;;;0.10;0.10;;;;;;;28.06;27.80;100150.50;6159264;23;20017;-60
2021/08/23 13:48:23;;;;;;;0.00;0.00;;;;;;;28.09;27.66;100157.31;6183262;23;20021;-63
2021/08/23 13:51:08;;;;;;;0.00;0.00;;;;;;;28.04;27.99;100139.09;6161268;23;20029;-63
2021/08/23 13:53:58;;;;;;;0.00;0.00;;;;;;;28.01;28.07;100135.94;6161561;23;20021;-63
2021/08/23 13:56:44;;;;;;;0.10;0.10;;;;;;;27.95;27.76;100145.56;6183437;23;20025;-61
2021/08/23 13:59:30;;;;;;;0.10;0.10;;;;;;;27.91;27.83;100137.06;6183131;23;20020;-62
2021/08/23 14:02:16;;;;;;;0.00;0.00;;;;;;;27.99;28.33;100156.75;6183404;23;20021;-61